Time,TemperatureF,DewpointF,PressureIn,WindDirection,WindDirectionDegrees,WindSpeedMPH,WindSpeedGustMPH,Humidity,HourlyPrecipIn,Conditions,Clouds,dailyrainin,SolarRadiationWatts/m^2,SoftwareType,DateUTC
2013-11-16 00:01:00,38.8,30.9,30.00,SW,226,0.0,0.0,73,0.00,,,0.00,0,Wunderground v.1.15,2013-11-16 05:01:00,
2013-11-16 00:05:00,38.7,30.8,30.00,SW,226,0.0,0.0,73,0.00,,,0.00,0,Wunderground v.1.15,2013-11-16 05:05:00,
2013-11-16 00:11:00,38.7,30.8,30.00,SW,226,0.0,0.0,73,0.00,,,0.00,0,Wunderground v.1.15,2013-11-16 05:11:00,
2013-11-16 00:16:00,38.7,30.8,29.99,SW,226,0.0,0.0,73,0.00,,,0.00,0,Wunderground v.1.15,2013-11-16 05:16:00,
2013-11-16 00:26:00,38.7,30.8,29.99,SW,226,0.0,0.0,73,0.00,,,0.00,0,Wunderground v.1.15,2013-11-16 05:26:00,
2013-11-16 00:36:00,38.7,31.1,29.99,SW,226,0.0,0.0,74,0.00,,,0.00,0,Wunderground v.1.15,2013-11-16 05:36:00,
2013-11-16 00:41:00,38.6,31.0,29.99,SW,226,0.0,0.0,74,0.00,,,0.00,0,Wunderground v.1.15,2013-11-16 05:41:00,
2013-11-16 00:46:00,38.4,30.8,29.99,SW,226,0.0,0.0,74,0.00,,,0.00,0,Wunderground v.1.15,2013-11-16 05:46:00,
2013-11-16 00:51:00,38.2,30.6,29.99,SW,226,0.0,0.0,74,0.00,,,0.00,0,Wunderground v.1.15,2013-11-16 05:51:00,
2013-11-16 01:01:00,38.2,31.3,29.99,SW,226,0.0,0.0,76,0.00,,,0.00,0,Wunderground v.1.15,2013-11-16 06:01:00,
2013-11-16 01:11:00,38.4,31.2,30.00,SW,227,0.0,0.0,75,0.00,,,0.00,0,Wunderground v.1.15,2013-11-16 06:11:00,
2013-11-16 01:21:00,38.6,31.4,29.99,WNW,302,1.0,1.0,75,0.00,,,0.00,0,Wunderground v.1.15,2013-11-16 06:21:00,
2013-11-16 01:31:00,38.9,31.6,29.98,NW,304,0.0,0.0,75,0.00,,,0.00,0,Wunderground v.1.15,2013-11-16 06:31:00,
2013-11-16 01:36:00,39.0,31.7,29.98,NW,305,0.0,0.0,75,0.00,,,0.00,0,Wunderground v.1.15,2013-11-16 06:36:00,
2013-11-16 01:46:00,38.9,31.6,29.98,NW,305,0.0,1.0,75,0.00,,,0.00,0,Wunderground v.1.15,2013-11-16 06:46:00,
2013-11-16 01:56:00,38.7,31.5,29.99,NW,305,0.0,0.0,75,0.00,,,0.00,0,Wunderground v.1.15,2013-11-16 06:56:00,
2013-11-16 02:06:00,38.3,31.1,29.99,NW,305,0.0,0.0,75,0.00,,,0.00,0,Wunderground v.1.15,2013-11-16 07:06:00,
2013-11-16 02:16:00,37.9,31.0,29.99,SE,139,0.0,0.0,76,0.00,,,0.00,0,Wunderground v.1.15,2013-11-16 07:16:00,
2013-11-16 02:26:00,37.2,30.7,29.99,SE,139,0.0,0.0,77,0.00,,,0.00,0,Wunderground v.1.15,2013-11-16 07:26:00,
2013-11-16 02:36:00,36.8,30.6,29.99,SE,139,0.0,0.0,78,0.00,,,0.00,0,Wunderground v.1.15,2013-11-16 07:36:00,
2013-11-16 02:46:00,36.7,30.8,29.99,South,178,1.0,1.0,79,0.00,,,0.00,0,Wunderground v.1.15,2013-11-16 07:46:00,
2013-11-16 02:56:00,36.5,30.3,29.99,SE,146,2.0,2.0,78,0.00,,,0.00,0,Wunderground v.1.15,2013-11-16 07:56:00,
2013-11-16 03:06:00,35.9,30.0,29.99,SE,144,1.0,6.0,79,0.00,,,0.00,0,Wunderground v.1.15,2013-11-16 08:06:00,
2013-11-16 03:11:00,35.8,29.9,29.99,SE,144,0.0,0.0,79,0.00,,,0.00,0,Wunderground v.1.15,2013-11-16 08:11:00,
2013-11-16 03:21:00,35.9,30.3,29.99,SE,144,1.0,1.0,80,0.00,,,0.00,0,Wunderground v.1.15,2013-11-16 08:21:00,
2013-11-16 03:26:00,36.1,30.5,30.00,SE,144,0.0,1.0,80,0.00,,,0.00,0,Wunderground v.1.15,2013-11-16 08:26:00,
2013-11-16 03:36:00,36.2,30.3,29.99,SE,144,0.0,1.0,79,0.00,,,0.00,0,Wunderground v.1.15,2013-11-16 08:36:00,
2013-11-16 03:41:00,36.2,30.3,30.00,SE,144,0.0,0.0,79,0.00,,,0.00,0,Wunderground v.1.15,2013-11-16 08:41:00,
2013-11-16 03:46:00,36.2,30.3,30.00,SE,144,0.0,1.0,79,0.00,,,0.00,0,Wunderground v.1.15,2013-11-16 08:46:00,
2013-11-16 03:56:00,36.1,30.2,30.00,SE,144,0.0,1.0,79,0.00,,,0.00,0,Wunderground v.1.15,2013-11-16 08:56:00,
2013-11-16 04:01:00,35.9,30.0,30.00,SSE,147,1.0,2.0,79,0.00,,,0.00,0,Wunderground v.1.15,2013-11-16 09:01:00,
2013-11-16 04:11:00,35.1,29.2,30.00,SSE,149,2.0,2.0,79,0.00,,,0.00,0,Wunderground v.1.15,2013-11-16 09:11:00,
2013-11-16 04:21:00,34.5,29.3,30.01,ESE,123,2.0,2.0,81,0.00,,,0.00,0,Wunderground v.1.15,2013-11-16 09:21:00,
2013-11-16 04:26:00,34.7,29.8,30.01,SSE,151,1.0,2.0,82,0.00,,,0.00,0,Wunderground v.1.15,2013-11-16 09:26:00,
2013-11-16 04:36:00,35.3,30.4,30.01,SE,138,0.0,2.0,82,0.00,,,0.00,0,Wunderground v.1.15,2013-11-16 09:36:00,
2013-11-16 04:41:00,35.5,30.2,30.01,SE,140,0.0,0.0,81,0.00,,,0.00,0,Wunderground v.1.15,2013-11-16 09:41:00,
2013-11-16 04:51:00,35.7,30.4,30.02,SSE,165,0.0,0.0,81,0.00,,,0.00,0,Wunderground v.1.15,2013-11-16 09:51:00,
2013-11-16 04:56:00,35.8,30.5,30.02,SE,134,0.0,0.0,81,0.00,,,0.00,0,Wunderground v.1.15,2013-11-16 09:56:00,
2013-11-16 05:01:00,35.9,30.6,30.02,SE,134,0.0,0.0,81,0.00,,,0.00,0,Wunderground v.1.15,2013-11-16 10:01:00,
2013-11-16 05:11:00,36.2,30.9,30.02,SSE,165,0.0,0.0,81,0.00,,,0.00,0,Wunderground v.1.15,2013-11-16 10:11:00,
2013-11-16 05:16:00,36.3,30.7,30.02,West,274,0.0,0.0,80,0.00,,,0.00,0,Wunderground v.1.15,2013-11-16 10:16:00,
2013-11-16 05:21:00,36.2,30.6,30.02,West,274,0.0,0.0,80,0.00,,,0.00,0,Wunderground v.1.15,2013-11-16 10:21:00,
2013-11-16 05:31:00,36.2,30.9,30.02,West,273,0.0,0.0,81,0.00,,,0.00,0,Wunderground v.1.15,2013-11-16 10:31:00,
2013-11-16 05:41:00,36.3,31.0,30.02,SE,134,0.0,0.0,81,0.00,,,0.00,0,Wunderground v.1.15,2013-11-16 10:41:00,
2013-11-16 05:51:00,36.2,30.9,30.02,SSE,159,0.0,0.0,81,0.00,,,0.00,0,Wunderground v.1.15,2013-11-16 10:51:00,
2013-11-16 06:01:00,36.2,30.9,30.03,SSE,159,0.0,0.0,81,0.00,,,0.00,0,Wunderground v.1.15,2013-11-16 11:01:00,
2013-11-16 06:11:00,36.2,31.2,30.02,SSE,159,0.0,0.0,82,0.00,,,0.00,0,Wunderground v.1.15,2013-11-16 11:11:00,
2013-11-16 06:21:00,35.9,30.9,30.01,SSE,148,2.0,2.0,82,0.00,,,0.00,0,Wunderground v.1.15,2013-11-16 11:21:00,
2013-11-16 06:31:00,35.2,30.3,30.02,SSE,154,2.0,3.0,82,0.00,,,0.00,0,Wunderground v.1.15,2013-11-16 11:31:00,
2013-11-16 06:41:00,34.8,30.2,30.01,SE,138,3.0,3.0,83,0.00,,,0.00,0,Wunderground v.1.15,2013-11-16 11:41:00,
2013-11-16 06:46:00,34.7,30.1,30.02,South,170,3.0,5.0,83,0.00,,,0.00,0,Wunderground v.1.15,2013-11-16 11:46:00,
2013-11-16 06:56:00,34.8,30.5,30.01,SSE,163,3.0,6.0,84,0.00,,,0.00,0,Wunderground v.1.15,2013-11-16 11:56:00,
2013-11-16 07:10:00,35.1,30.8,30.01,SSW,205,4.0,4.0,84,0.00,,,0.00,0,Wunderground v.1.15,2013-11-16 12:10:00,
2013-11-16 07:15:00,34.9,30.6,30.01,SSE,155,3.0,4.0,84,0.00,,,0.00,0,Wunderground v.1.15,2013-11-16 12:15:00,
2013-11-16 07:25:00,34.7,30.7,30.02,SSW,198,2.0,2.0,85,0.00,,,0.00,0,Wunderground v.1.15,2013-11-16 12:25:00,
2013-11-16 07:35:00,34.6,30.6,30.02,SE,132,3.0,5.0,85,0.00,,,0.00,0,Wunderground v.1.15,2013-11-16 12:35:00,
2013-11-16 07:45:00,34.8,31.3,30.02,SSE,155,2.0,4.0,87,0.00,,,0.00,9,Wunderground v.1.15,2013-11-16 12:45:00,
2013-11-16 07:55:00,35.1,31.6,30.02,SSE,159,2.0,3.0,87,0.00,,,0.00,14,Wunderground v.1.15,2013-11-16 12:55:00,
2013-11-16 08:00:00,35.2,31.7,30.02,SSE,153,2.0,2.0,87,0.00,,,0.00,14,Wunderground v.1.15,2013-11-16 13:00:00,
2013-11-16 08:10:00,35.4,31.9,30.02,SSE,155,3.0,9.0,87,0.00,,,0.00,35,Wunderground v.1.15,2013-11-16 13:10:00,
2013-11-16 08:20:00,35.6,32.4,30.01,SE,143,6.0,6.0,88,0.00,,,0.00,35,Wunderground v.1.15,2013-11-16 13:20:00,
2013-11-16 08:30:00,35.8,32.6,30.01,SSE,163,4.0,4.0,88,0.00,,,0.00,40,Wunderground v.1.15,2013-11-16 13:30:00,
2013-11-16 08:35:00,35.9,33.0,30.01,SSE,154,2.0,9.0,89,0.00,,,0.00,25,Wunderground v.1.15,2013-11-16 13:35:00,
2013-11-16 08:40:00,36.4,33.7,30.01,ESE,122,2.0,2.0,90,0.00,,,0.00,23,Wunderground v.1.15,2013-11-16 13:40:00,
2013-11-16 08:50:00,37.2,34.5,30.00,SE,144,3.0,9.0,90,0.00,,,0.00,39,Wunderground v.1.15,2013-11-16 13:50:00,
2013-11-16 09:00:00,37.7,35.0,30.00,ESE,123,7.0,7.0,90,0.00,,,0.00,44,Wunderground v.1.15,2013-11-16 14:00:00,
2013-11-16 09:10:00,38.3,35.9,29.99,SE,140,6.0,11.0,91,0.00,,,0.00,42,Wunderground v.1.15,2013-11-16 14:10:00,
2013-11-16 09:20:00,39.0,36.9,29.98,SSE,156,11.0,11.0,92,0.00,,,0.00,54,Wunderground v.1.15,2013-11-16 14:20:00,
2013-11-16 09:25:00,39.4,37.3,30.00,ESE,117,6.0,11.0,92,0.00,,,0.00,63,Wunderground v.1.15,2013-11-16 14:25:00,
2013-11-16 09:35:00,40.0,37.9,29.99,ESE,112,1.0,5.0,92,0.00,,,0.00,84,Wunderground v.1.15,2013-11-16 14:35:00,
2013-11-16 09:45:00,40.5,38.4,29.99,SE,142,3.0,9.0,92,0.00,,,0.00,81,Wunderground v.1.15,2013-11-16 14:45:00,
2013-11-16 09:55:00,40.8,38.7,29.99,SSE,149,5.0,5.0,92,0.00,,,0.00,95,Wunderground v.1.15,2013-11-16 14:55:00,
2013-11-16 10:00:00,41.1,39.0,29.98,ESE,114,4.0,4.0,92,0.00,,,0.00,93,Wunderground v.1.15,2013-11-16 15:00:00,
2013-11-16 10:10:00,42.0,40.1,29.97,SSW,210,3.0,9.0,93,0.00,,,0.00,139,Wunderground v.1.15,2013-11-16 15:10:00,
2013-11-16 10:20:00,43.0,40.8,29.98,ESE,102,2.0,9.0,92,0.00,,,0.00,100,Wunderground v.1.15,2013-11-16 15:20:00,
2013-11-16 10:30:00,44.0,41.8,29.98,South,173,4.0,9.0,92,0.00,,,0.00,107,Wunderground v.1.15,2013-11-16 15:30:00,
2013-11-16 10:36:00,44.5,42.3,29.98,ESE,113,4.0,9.0,92,0.00,,,0.00,113,Wunderground v.1.15,2013-11-16 15:36:00,
2013-11-16 10:45:00,45.4,42.9,29.97,SE,140,6.0,11.0,91,0.00,,,0.00,113,Wunderground v.1.15,2013-11-16 15:45:00,
2013-11-16 10:51:00,45.8,43.3,29.97,SE,133,8.0,8.0,91,0.00,,,0.00,98,Wunderground v.1.15,2013-11-16 15:51:00,
2013-11-16 11:01:00,46.2,43.4,29.96,SE,133,8.0,11.0,90,0.00,,,0.00,118,Wunderground v.1.15,2013-11-16 16:01:00,
2013-11-16 11:10:00,46.8,43.7,29.96,SE,130,12.0,12.0,89,0.00,,,0.00,128,Wunderground v.1.15,2013-11-16 16:10:00,
2013-11-16 11:16:00,47.1,44.0,29.96,SSE,161,7.0,12.0,89,0.00,,,0.00,91,Wunderground v.1.15,2013-11-16 16:16:00,
2013-11-16 11:25:00,47.5,44.1,29.95,East,86,3.0,9.0,88,0.00,,,0.00,113,Wunderground v.1.15,2013-11-16 16:25:00,
2013-11-16 11:35:00,48.0,44.6,29.95,SE,130,5.0,9.0,88,0.00,,,0.00,172,Wunderground v.1.15,2013-11-16 16:35:00,
2013-11-16 11:45:00,48.4,44.7,29.93,SE,139,8.0,14.0,87,0.00,,,0.00,199,Wunderground v.1.15,2013-11-16 16:45:00,
2013-11-16 11:55:00,48.8,44.8,29.93,ESE,112,5.0,9.0,86,0.00,,,0.00,221,Wunderground v.1.15,2013-11-16 16:55:00,
2013-11-16 12:01:00,49.1,45.1,29.93,SE,138,5.0,5.0,86,0.00,,,0.00,216,Wunderground v.1.15,2013-11-16 17:01:00,
2013-11-16 12:10:00,49.6,45.3,29.92,SSE,150,4.0,4.0,85,0.00,,,0.00,186,Wunderground v.1.15,2013-11-16 17:10:00,
2013-11-16 12:20:00,50.3,45.6,29.91,SSE,151,3.0,3.0,84,0.00,,,0.00,225,Wunderground v.1.15,2013-11-16 17:20:00,
2013-11-16 12:26:00,50.6,45.9,29.91,ESE,120,2.0,9.0,84,0.00,,,0.00,255,Wunderground v.1.15,2013-11-16 17:26:00,
2013-11-16 12:35:00,51.5,46.2,29.90,SSE,163,3.0,9.0,82,0.00,,,0.00,260,Wunderground v.1.15,2013-11-16 17:35:00,
2013-11-16 12:45:00,52.4,46.7,29.90,SSE,150,4.0,9.0,81,0.00,,,0.00,243,Wunderground v.1.15,2013-11-16 17:45:00,
2013-11-16 12:51:00,52.7,46.7,29.89,East,98,5.0,9.0,80,0.00,,,0.00,214,Wunderground v.1.15,2013-11-16 17:51:00,
2013-11-16 13:00:00,53.5,47.1,29.88,SE,130,5.0,9.0,79,0.00,,,0.00,313,Wunderground v.1.15,2013-11-16 18:00:00,
2013-11-16 13:10:00,54.2,47.5,29.87,NW,324,4.0,4.0,78,0.00,,,0.00,253,Wunderground v.1.15,2013-11-16 18:10:00,
2013-11-16 13:16:00,54.4,47.7,29.87,SSE,161,3.0,9.0,78,0.00,,,0.00,193,Wunderground v.1.15,2013-11-16 18:16:00,
2013-11-16 13:26:00,54.7,47.6,29.86,SE,146,4.0,7.0,77,0.00,,,0.00,200,Wunderground v.1.15,2013-11-16 18:26:00,
2013-11-16 13:35:00,54.7,47.3,29.86,South,179,5.0,9.0,76,0.00,,,0.00,90,Wunderground v.1.15,2013-11-16 18:35:00,
2013-11-16 13:45:00,54.6,47.5,29.86,SE,142,6.0,11.0,77,0.00,,,0.00,197,Wunderground v.1.15,2013-11-16 18:45:00,
2013-11-16 13:51:00,54.7,47.6,29.86,SSE,155,7.0,9.0,77,0.00,,,0.00,165,Wunderground v.1.15,2013-11-16 18:51:00,
2013-11-16 14:01:00,54.9,47.5,29.86,SSE,157,3.0,9.0,76,0.00,,,0.00,74,Wunderground v.1.15,2013-11-16 19:01:00,
2013-11-16 14:06:00,54.9,47.8,29.86,SE,134,2.0,9.0,77,0.00,,,0.00,134,Wunderground v.1.15,2013-11-16 19:06:00,
2013-11-16 14:16:00,55.2,48.1,29.85,East,86,3.0,9.0,77,0.00,,,0.00,69,Wunderground v.1.15,2013-11-16 19:16:00,
2013-11-16 14:26:00,55.4,48.0,29.83,SSE,147,3.0,9.0,76,0.00,,,0.00,81,Wunderground v.1.15,2013-11-16 19:26:00,
2013-11-16 14:35:00,55.5,48.1,29.82,ESE,105,3.0,9.0,76,0.00,,,0.00,111,Wunderground v.1.15,2013-11-16 19:35:00,
2013-11-16 14:41:00,55.6,48.2,29.82,South,182,2.0,9.0,76,0.00,,,0.00,104,Wunderground v.1.15,2013-11-16 19:41:00,
2013-11-16 14:50:00,55.6,48.2,29.83,SW,227,2.0,2.0,76,0.00,,,0.00,69,Wunderground v.1.15,2013-11-16 19:50:00,
2013-11-16 14:56:00,55.5,48.1,29.82,SE,126,2.0,10.0,76,0.00,,,0.00,67,Wunderground v.1.15,2013-11-16 19:56:00,
2013-11-16 15:06:00,55.3,48.2,29.81,ESE,123,6.0,9.0,77,0.00,,,0.00,100,Wunderground v.1.15,2013-11-16 20:06:00,
2013-11-16 15:16:00,55.2,48.1,29.82,ENE,59,4.0,9.0,77,0.00,,,0.00,72,Wunderground v.1.15,2013-11-16 20:16:00,
2013-11-16 15:25:00,55.1,48.4,29.82,SE,129,1.0,6.0,78,0.00,,,0.00,83,Wunderground v.1.15,2013-11-16 20:25:00,
2013-11-16 15:31:00,55.1,48.4,29.82,SSE,150,2.0,9.0,78,0.00,,,0.00,54,Wunderground v.1.15,2013-11-16 20:31:00,
2013-11-16 15:41:00,55.1,48.4,29.81,ESE,121,4.0,9.0,78,0.00,,,0.00,62,Wunderground v.1.15,2013-11-16 20:41:00,
2013-11-16 15:51:00,55.1,48.4,29.81,SE,130,5.0,5.0,78,0.00,,,0.00,47,Wunderground v.1.15,2013-11-16 20:51:00,
2013-11-16 16:01:00,55.0,48.6,29.81,SE,140,5.0,5.0,79,0.00,,,0.00,44,Wunderground v.1.15,2013-11-16 21:01:00,
2013-11-16 16:10:00,54.7,48.3,29.81,SSE,156,6.0,6.0,79,0.00,,,0.00,30,Wunderground v.1.15,2013-11-16 21:10:00,
2013-11-16 16:16:00,54.6,48.2,29.81,SE,129,4.0,7.0,79,0.00,,,0.00,25,Wunderground v.1.15,2013-11-16 21:16:00,
2013-11-16 16:26:00,54.5,48.1,29.81,East,98,6.0,9.0,79,0.00,,,0.00,16,Wunderground v.1.15,2013-11-16 21:26:00,
2013-11-16 16:36:00,54.1,48.1,29.80,South,180,5.0,9.0,80,0.00,,,0.00,14,Wunderground v.1.15,2013-11-16 21:36:00,
2013-11-16 16:46:00,53.9,47.9,29.81,SE,142,7.0,9.0,80,0.00,,,0.00,12,Wunderground v.1.15,2013-11-16 21:46:00,
2013-11-16 16:51:00,53.8,48.1,29.80,SE,136,7.0,9.0,81,0.00,,,0.00,5,Wunderground v.1.15,2013-11-16 21:51:00,
2013-11-16 17:01:00,53.7,48.0,29.79,SE,133,9.0,9.0,81,0.00,,,0.00,0,Wunderground v.1.15,2013-11-16 22:01:00,
2013-11-16 17:10:00,53.6,48.2,29.79,SSE,165,7.0,7.0,82,0.00,,,0.00,0,Wunderground v.1.15,2013-11-16 22:10:00,
2013-11-16 17:16:00,53.6,48.2,29.78,SE,134,5.0,9.0,82,0.00,,,0.00,0,Wunderground v.1.15,2013-11-16 22:16:00,
2013-11-16 17:26:00,53.5,48.1,29.78,South,188,6.0,9.0,82,0.00,,,0.00,0,Wunderground v.1.15,2013-11-16 22:26:00,
2013-11-16 17:35:00,53.6,48.2,29.79,SSE,161,3.0,9.0,82,0.00,,,0.00,0,Wunderground v.1.15,2013-11-16 22:35:00,
2013-11-16 17:41:00,53.7,48.3,29.79,ENE,69,2.0,2.0,82,0.00,,,0.00,0,Wunderground v.1.15,2013-11-16 22:41:00,
2013-11-16 17:51:00,53.8,48.4,29.79,East,85,2.0,9.0,82,0.00,,,0.00,0,Wunderground v.1.15,2013-11-16 22:51:00,
2013-11-16 18:01:00,54.0,48.6,29.79,North,360,2.0,9.0,82,0.00,,,0.00,0,Wunderground v.1.15,2013-11-16 23:01:00,
2013-11-16 18:10:00,54.1,49.1,29.78,NNE,15,1.0,9.0,83,0.00,,,0.00,0,Wunderground v.1.15,2013-11-16 23:10:00,
2013-11-16 18:16:00,54.3,49.2,29.78,East,90,2.0,9.0,83,0.00,,,0.00,0,Wunderground v.1.15,2013-11-16 23:16:00,
2013-11-16 18:25:00,54.5,49.1,29.78,SE,130,2.0,4.0,82,0.00,,,0.00,0,Wunderground v.1.15,2013-11-16 23:25:00,
2013-11-16 18:31:00,54.5,49.1,29.77,ESE,117,2.0,9.0,82,0.00,,,0.00,0,Wunderground v.1.15,2013-11-16 23:31:00,
2013-11-16 18:41:00,54.5,49.1,29.77,ESE,121,2.0,2.0,82,0.00,,,0.00,0,Wunderground v.1.15,2013-11-16 23:41:00,
2013-11-16 18:51:00,54.5,49.4,29.77,East,91,1.0,9.0,83,0.00,,,0.00,0,Wunderground v.1.15,2013-11-16 23:51:00,
2013-11-16 18:56:00,54.5,49.4,29.77,SE,127,1.0,9.0,83,0.00,,,0.00,0,Wunderground v.1.15,2013-11-16 23:56:00,
2013-11-16 19:01:00,54.5,49.4,29.77,SE,128,1.0,1.0,83,0.00,,,0.00,0,Wunderground v.1.15,2013-11-17 00:01:00,
2013-11-16 19:06:00,54.5,49.4,29.77,ESE,103,1.0,1.0,83,0.00,,,0.00,0,Wunderground v.1.15,2013-11-17 00:06:00,
2013-11-16 19:16:00,54.4,49.3,29.77,North,360,1.0,1.0,83,0.00,,,0.00,0,Wunderground v.1.15,2013-11-17 00:16:00,
2013-11-16 19:21:00,54.4,49.3,29.77,WNW,290,1.0,2.0,83,0.00,,,0.00,0,Wunderground v.1.15,2013-11-17 00:21:00,
2013-11-16 19:26:00,54.5,49.4,29.77,NW,322,1.0,3.0,83,0.00,,,0.00,0,Wunderground v.1.15,2013-11-17 00:26:00,
2013-11-16 19:36:00,54.7,49.6,29.76,SSE,157,2.0,2.0,83,0.00,,,0.00,0,Wunderground v.1.15,2013-11-17 00:36:00,
2013-11-16 19:46:00,54.6,49.5,29.77,East,98,1.0,2.0,83,0.00,,,0.00,0,Wunderground v.1.15,2013-11-17 00:46:00,
2013-11-16 19:51:00,54.6,49.5,29.76,East,94,1.0,1.0,83,0.00,,,0.00,0,Wunderground v.1.15,2013-11-17 00:51:00,
2013-11-16 20:01:00,54.4,49.3,29.76,East,92,1.0,2.0,83,0.00,,,0.00,0,Wunderground v.1.15,2013-11-17 01:01:00,
2013-11-16 20:06:00,54.2,49.1,29.76,East,89,2.0,2.0,83,0.00,,,0.00,0,Wunderground v.1.15,2013-11-17 01:06:00,
2013-11-16 20:16:00,54.1,49.4,29.76,SE,130,1.0,4.0,84,0.00,,,0.00,0,Wunderground v.1.15,2013-11-17 01:16:00,
2013-11-16 20:21:00,54.0,49.3,29.76,WNW,295,2.0,2.0,84,0.00,,,0.00,0,Wunderground v.1.15,2013-11-17 01:21:00,
2013-11-16 20:26:00,53.9,49.2,29.76,NW,325,1.0,2.0,84,0.00,,,0.00,0,Wunderground v.1.15,2013-11-17 01:26:00,
2013-11-16 20:35:00,53.9,49.2,29.75,North,5,2.0,2.0,84,0.00,,,0.00,0,Wunderground v.1.15,2013-11-17 01:35:00,
2013-11-16 20:41:00,53.9,49.2,29.75,NW,311,2.0,3.0,84,0.00,,,0.00,0,Wunderground v.1.15,2013-11-17 01:41:00,
2013-11-16 20:46:00,53.9,49.2,29.75,East,92,2.0,3.0,84,0.00,,,0.00,0,Wunderground v.1.15,2013-11-17 01:46:00,
2013-11-16 20:51:00,53.9,49.5,29.74,NW,326,2.0,2.0,85,0.00,,,0.00,0,Wunderground v.1.15,2013-11-17 01:51:00,
2013-11-16 21:01:00,53.6,49.2,29.73,ENE,58,2.0,2.0,85,0.00,,,0.00,0,Wunderground v.1.15,2013-11-17 02:01:00,
2013-11-16 21:11:00,53.4,49.3,29.71,SSE,161,3.0,6.0,86,0.00,,,0.00,0,Wunderground v.1.15,2013-11-17 02:11:00,
2013-11-16 21:21:00,53.4,49.3,29.71,East,94,4.0,5.0,86,0.00,,,0.00,0,Wunderground v.1.15,2013-11-17 02:21:00,
2013-11-16 21:26:00,53.4,49.3,29.71,ESE,102,3.0,5.0,86,0.00,,,0.00,0,Wunderground v.1.15,2013-11-17 02:26:00,
2013-11-16 21:31:00,53.5,49.4,29.71,SE,140,3.0,4.0,86,0.00,,,0.00,0,Wunderground v.1.15,2013-11-17 02:31:00,
2013-11-16 21:41:00,53.5,49.7,29.70,West,275,4.0,4.0,87,0.00,,,0.00,0,Wunderground v.1.15,2013-11-17 02:41:00,
2013-11-16 21:46:00,53.6,49.8,29.71,East,92,3.0,4.0,87,0.00,,,0.00,0,Wunderground v.1.15,2013-11-17 02:46:00,
2013-11-16 21:56:00,53.6,49.5,29.70,South,169,3.0,4.0,86,0.00,,,0.00,0,Wunderground v.1.15,2013-11-17 02:56:00,
2013-11-16 22:01:00,53.7,49.9,29.69,WSW,251,4.0,4.0,87,0.00,,,0.00,0,Wunderground v.1.15,2013-11-17 03:01:00,
2013-11-16 22:11:00,53.8,50.0,29.69,SSE,155,4.0,4.0,87,0.00,,,0.00,0,Wunderground v.1.15,2013-11-17 03:11:00,
2013-11-16 22:21:00,53.8,50.3,29.70,East,80,4.0,4.0,88,0.00,,,0.01,0,Wunderground v.1.15,2013-11-17 03:21:00,
2013-11-16 22:26:00,53.8,50.3,29.69,South,172,3.0,4.0,88,0.00,,,0.01,0,Wunderground v.1.15,2013-11-17 03:26:00,
2013-11-16 22:36:00,53.8,50.3,29.70,NE,55,2.0,3.0,88,0.04,,,0.02,0,Wunderground v.1.15,2013-11-17 03:36:00,
2013-11-16 22:41:00,53.8,50.6,29.70,North,5,2.0,2.0,89,0.07,,,0.02,0,Wunderground v.1.15,2013-11-17 03:41:00,
2013-11-16 22:46:00,53.8,50.6,29.70,NW,308,2.0,2.0,89,0.07,,,0.03,0,Wunderground v.1.15,2013-11-17 03:46:00,
2013-11-16 22:51:00,53.9,50.7,29.70,WNW,285,2.0,4.0,89,0.06,,,0.03,0,Wunderground v.1.15,2013-11-17 03:51:00,
2013-11-16 23:01:00,53.9,51.0,29.70,SSE,150,2.0,3.0,90,0.30,,,0.07,0,Wunderground v.1.15,2013-11-17 04:01:00,
2013-11-16 23:11:00,54.0,51.1,29.70,WSW,257,2.0,2.0,90,0.34,,,0.11,0,Wunderground v.1.15,2013-11-17 04:11:00,
2013-11-16 23:21:00,53.9,51.3,29.68,SE,132,4.0,9.0,91,0.22,,,0.15,0,Wunderground v.1.15,2013-11-17 04:21:00,
2013-11-16 23:26:00,53.8,51.2,29.68,SE,132,4.0,9.0,91,0.09,,,0.16,0,Wunderground v.1.15,2013-11-17 04:26:00,
2013-11-16 23:31:00,53.8,51.2,29.68,North,350,3.0,3.0,91,0.09,,,0.16,0,Wunderground v.1.15,2013-11-17 04:31:00,
2013-11-16 23:36:00,53.9,51.6,29.68,East,97,3.0,3.0,92,0.20,,,0.18,0,Wunderground v.1.15,2013-11-17 04:36:00,
2013-11-16 23:41:00,53.9,51.6,29.68,ESE,114,2.0,2.0,92,0.17,,,0.19,0,Wunderground v.1.15,2013-11-17 04:41:00,
2013-11-16 23:51:00,53.9,51.6,29.68,SSE,148,2.0,2.0,92,0.07,,,0.20,0,Wunderground v.1.15,2013-11-17 04:51:00,
2013-11-16 23:56:00,53.9,51.9,29.67,SE,134,3.0,8.0,93,0.08,,,0.21,0,Wunderground v.1.15,2013-11-17 04:56:00,